sensor_id;sensor_type;location;lat;lon;timestamp;pressure;altitude;pressure_sealevel;temperature;humidity
73383;BME280;61600;48.126;11.542;2023-07-22T00:01:02;95662.03;;;18.84;66.45
73383;BME280;61600;48.126;11.542;2023-07-22T00:03:28;95662.78;;;18.73;67.48
73383;BME280;61600;48.126;11.542;2023-07-22T00:06:08;95658.50;;;18.63;67.59
73383;BME280;61600;48.126;11.542;2023-07-22T00:08:37;95665.34;;;18.57;67.87
73383;BME280;61600;48.126;11.542;2023-07-22T00:11:04;95657.41;;;18.56;67.26
73383;BME280;61600;48.126;11.542;2023-07-22T00:13:31;95655.78;;;18.55;67.21
73383;BME280;61600;48.126;11.542;2023-07-22T00:15:57;95651.97;;;18.68;67.19
73383;BME280;61600;48.126;11.542;2023-07-22T00:18:25;95647.25;;;18.68;67.38
73383;BME280;61600;48.126;11.542;2023-07-22T00:20:53;95649.69;;;18.70;67.21
73383;BME280;61600;48.126;11.542;2023-07-22T00:23:19;95657.09;;;18.48;66.62
73383;BME280;61600;48.126;11.542;2023-07-22T00:25:48;95652.72;;;18.47;66.63
73383;BME280;61600;48.126;11.542;2023-07-22T00:28:14;95664.28;;;18.41;66.75
73383;BME280;61600;48.126;11.542;2023-07-22T00:30:40;95666.34;;;18.44;66.23
73383;BME280;61600;48.126;11.542;2023-07-22T00:33:07;95661.00;;;18.47;66.24
73383;BME280;61600;48.126;11.542;2023-07-22T00:35:33;95650.19;;;18.42;66.94
73383;BME280;61600;48.126;11.542;2023-07-22T00:38:00;95652.25;;;18.54;66.32
73383;BME280;61600;48.126;11.542;2023-07-22T00:40:25;95644.69;;;18.42;66.49
73383;BME280;61600;48.126;11.542;2023-07-22T00:42:51;95640.50;;;18.36;67.38
73383;BME280;61600;48.126;11.542;2023-07-22T00:45:17;95642.38;;;18.44;66.48
73383;BME280;61600;48.126;11.542;2023-07-22T00:47:44;95641.94;;;18.42;67.11
73383;BME280;61600;48.126;11.542;2023-07-22T00:50:11;95639.63;;;18.44;66.03
73383;BME280;61600;48.126;11.542;2023-07-22T00:52:38;95633.78;;;18.46;66.65
73383;BME280;61600;48.126;11.542;2023-07-22T00:55:04;95630.00;;;18.30;66.71
73383;BME280;61600;48.126;11.542;2023-07-22T00:57:31;95633.91;;;18.29;66.17
73383;BME280;61600;48.126;11.542;2023-07-22T00:59:57;95624.19;;;18.31;66.20
73383;BME280;61600;48.126;11.542;2023-07-22T01:02:22;95632.56;;;18.35;66.69
73383;BME280;61600;48.126;11.542;2023-07-22T01:04:49;95616.09;;;18.26;66.54
73383;BME280;61600;48.126;11.542;2023-07-22T01:07:16;95614.56;;;18.37;66.84
73383;BME280;61600;48.126;11.542;2023-07-22T01:09:42;95609.94;;;18.50;66.61
73383;BME280;61600;48.126;11.542;2023-07-22T01:12:09;95612.22;;;18.48;66.45
73383;BME280;61600;48.126;11.542;2023-07-22T01:14:41;95614.69;;;18.41;66.75
73383;BME280;61600;48.126;11.542;2023-07-22T01:17:08;95611.00;;;18.37;66.27
73383;BME280;61600;48.126;11.542;2023-07-22T01:19:34;95606.78;;;18.39;67.06
73383;BME280;61600;48.126;11.542;2023-07-22T01:22:02;95609.19;;;18.41;67.02
73383;BME280;61600;48.126;11.542;2023-07-22T01:24:31;95614.84;;;18.44;66.83
73383;BME280;61600;48.126;11.542;2023-07-22T01:26:57;95616.91;;;18.47;67.16
73383;BME280;61600;48.126;11.542;2023-07-22T01:29:24;95623.91;;;18.45;66.44
73383;BME280;61600;48.126;11.542;2023-07-22T01:31:52;95632.53;;;18.43;67.00
73383;BME280;61600;48.126;11.542;2023-07-22T01:34:20;95628.47;;;18.41;67.33
73383;BME280;61600;48.126;11.542;2023-07-22T01:36:46;95630.56;;;18.44;66.81
73383;BME280;61600;48.126;11.542;2023-07-22T01:39:13;95630.56;;;18.44;66.69
73383;BME280;61600;48.126;11.542;2023-07-22T01:41:40;95625.19;;;18.47;67.08
73383;BME280;61600;48.126;11.542;2023-07-22T01:44:05;95626.16;;;18.52;66.81
73383;BME280;61600;48.126;11.542;2023-07-22T01:46:31;95624.69;;;18.54;66.73
73383;BME280;61600;48.126;11.542;2023-07-22T01:48:57;95628.72;;;18.57;67.11
73383;BME280;61600;48.126;11.542;2023-07-22T01:51:23;95636.00;;;18.61;66.88
73383;BME280;61600;48.126;11.542;2023-07-22T01:53:48;95640.19;;;18.59;67.01
73383;BME280;61600;48.126;11.542;2023-07-22T01:56:15;95635.63;;;18.63;67.30
73383;BME280;61600;48.126;11.542;2023-07-22T01:58:42;95633.00;;;18.66;67.50
73383;BME280;61600;48.126;11.542;2023-07-22T02:01:08;95637.78;;;18.78;67.56
73383;BME280;61600;48.126;11.542;2023-07-22T02:03:34;95629.53;;;18.78;67.09
73383;BME280;61600;48.126;11.542;2023-07-22T02:06:04;95631.66;;;18.72;67.02
73383;BME280;61600;48.126;11.542;2023-07-22T02:08:30;95632.53;;;18.85;67.16
73383;BME280;61600;48.126;11.542;2023-07-22T02:11:03;95630.06;;;19.04;67.10
73383;BME280;61600;48.126;11.542;2023-07-22T02:13:33;95636.88;;;19.07;66.64
73383;BME280;61600;48.126;11.542;2023-07-22T02:15:59;95637.34;;;19.09;66.85
73383;BME280;61600;48.126;11.542;2023-07-22T02:18:25;95640.53;;;19.11;66.75
73383;BME280;61600;48.126;11.542;2023-07-22T02:20:51;95647.53;;;18.96;66.43
73383;BME280;61600;48.126;11.542;2023-07-22T02:23:18;95640.59;;;18.90;66.99
73383;BME280;61600;48.126;11.542;2023-07-22T02:25:44;95638.19;;;18.88;67.30
73383;BME280;61600;48.126;11.542;2023-07-22T02:28:10;95640.28;;;18.71;68.23
73383;BME280;61600;48.126;11.542;2023-07-22T02:30:36;95643.31;;;18.78;68.15
73383;BME280;61600;48.126;11.542;2023-07-22T02:33:04;95636.22;;;18.68;68.24
73383;BME280;61600;48.126;11.542;2023-07-22T02:35:30;95636.00;;;18.61;68.26
73383;BME280;61600;48.126;11.542;2023-07-22T02:37:56;95634.22;;;18.57;68.56
73383;BME280;61600;48.126;11.542;2023-07-22T02:40:22;95635.88;;;18.49;68.79
73383;BME280;61600;48.126;11.542;2023-07-22T02:42:47;95646.16;;;18.40;68.76
73383;BME280;61600;48.126;11.542;2023-07-22T02:45:13;95641.97;;;18.34;69.18
73383;BME280;61600;48.126;11.542;2023-07-22T02:47:39;95644.19;;;18.40;69.48
73383;BME280;61600;48.126;11.542;2023-07-22T02:50:08;95643.19;;;18.45;68.26
73383;BME280;61600;48.126;11.542;2023-07-22T02:52:34;95645.00;;;18.41;69.19
73383;BME280;61600;48.126;11.542;2023-07-22T02:55:16;95639.59;;;18.53;68.58
73383;BME280;61600;48.126;11.542;2023-07-22T02:57:46;95641.69;;;18.56;68.11
73383;BME280;61600;48.126;11.542;2023-07-22T03:00:12;95650.28;;;18.55;68.67
73383;BME280;61600;48.126;11.542;2023-07-22T03:02:39;95653.69;;;18.52;68.78
73383;BME280;61600;48.126;11.542;2023-07-22T03:05:07;95654.28;;;18.36;69.26
73383;BME280;61600;48.126;11.542;2023-07-22T03:07:34;95649.63;;;18.58;68.85
73383;BME280;61600;48.126;11.542;2023-07-22T03:10:00;95653.84;;;18.55;68.35
73383;BME280;61600;48.126;11.542;2023-07-22T03:12:26;95654.13;;;18.62;68.51
73383;BME280;61600;48.126;11.542;2023-07-22T03:14:53;95648.50;;;18.50;68.95
73383;BME280;61600;48.126;11.542;2023-07-22T03:17:18;95646.53;;;18.59;68.73
73383;BME280;61600;48.126;11.542;2023-07-22T03:19:45;95646.91;;;18.49;68.72
73383;BME280;61600;48.126;11.542;2023-07-22T03:22:13;95649.00;;;18.52;68.80
73383;BME280;61600;48.126;11.542;2023-07-22T03:24:39;95651.91;;;18.56;69.02
73383;BME280;61600;48.126;11.542;2023-07-22T03:27:05;95650.47;;;18.50;69.03
73383;BME280;61600;48.126;11.542;2023-07-22T03:29:32;95656.09;;;18.32;70.01
73383;BME280;61600;48.126;11.542;2023-07-22T03:31:58;95649.06;;;18.43;69.55
73383;BME280;61600;48.126;11.542;2023-07-22T03:34:27;95643.72;;;18.38;69.42
73383;BME280;61600;48.126;11.542;2023-07-22T03:36:53;95647.72;;;18.50;69.45
73383;BME280;61600;48.126;11.542;2023-07-22T03:39:19;95651.44;;;18.54;69.04
73383;BME280;61600;48.126;11.542;2023-07-22T03:41:45;95648.00;;;18.57;68.64
73383;BME280;61600;48.126;11.542;2023-07-22T03:44:11;95665.53;;;18.52;69.08
73383;BME280;61600;48.126;11.542;2023-07-22T03:46:38;95670.59;;;18.41;69.77
73383;BME280;61600;48.126;11.542;2023-07-22T03:49:04;95670.00;;;18.36;69.79
73383;BME280;61600;48.126;11.542;2023-07-22T03:51:29;95668.19;;;18.40;69.70
73383;BME280;61600;48.126;11.542;2023-07-22T03:53:55;95660.53;;;18.45;69.36
73383;BME280;61600;48.126;11.542;2023-07-22T03:56:21;95669.00;;;18.11;70.08
73383;BME280;61600;48.126;11.542;2023-07-22T03:58:49;95668.06;;;18.07;70.90
73383;BME280;61600;48.126;11.542;2023-07-22T04:01:15;95668.81;;;18.16;70.22
73383;BME280;61600;48.126;11.542;2023-07-22T04:03:41;95666.34;;;18.23;69.96
73383;BME280;61600;48.126;11.542;2023-07-22T04:06:07;95671.03;;;18.23;69.89
73383;BME280;61600;48.126;11.542;2023-07-22T04:08:32;95674.16;;;18.13;69.79
73383;BME280;61600;48.126;11.542;2023-07-22T04:10:59;95676.41;;;18.19;69.88
73383;BME280;61600;48.126;11.542;2023-07-22T04:13:26;95672.56;;;18.12;70.04
73383;BME280;61600;48.126;11.542;2023-07-22T04:15:52;95682.78;;;18.11;69.96
73383;BME280;61600;48.126;11.542;2023-07-22T04:18:19;95683.22;;;18.22;69.98
73383;BME280;61600;48.126;11.542;2023-07-22T04:20:46;95686.09;;;18.25;69.97
73383;BME280;61600;48.126;11.542;2023-07-22T04:23:13;95688.19;;;18.28;69.79
73383;BME280;61600;48.126;11.542;2023-07-22T04:25:40;95694.88;;;18.19;69.58
73383;BME280;61600;48.126;11.542;2023-07-22T04:28:06;95687.56;;;18.23;69.87
73383;BME280;61600;48.126;11.542;2023-07-22T04:30:33;95682.19;;;18.26;69.42
73383;BME280;61600;48.126;11.542;2023-07-22T04:32:59;95690.88;;;18.37;69.09
73383;BME280;61600;48.126;11.542;2023-07-22T04:35:24;95687.78;;;18.38;69.41
73383;BME280;61600;48.126;11.542;2023-07-22T04:37:50;95682.25;;;18.47;69.30
73383;BME280;61600;48.126;11.542;2023-07-22T04:40:16;95673.63;;;18.48;68.55
73383;BME280;61600;48.126;11.542;2023-07-22T04:42:44;95672.59;;;18.62;68.52
73383;BME280;61600;48.126;11.542;2023-07-22T04:45:10;95672.25;;;18.63;68.13
73383;BME280;61600;48.126;11.542;2023-07-22T04:47:37;95674.06;;;18.80;67.68
73383;BME280;61600;48.126;11.542;2023-07-22T04:50:05;95679.00;;;18.74;67.77
73383;BME280;61600;48.126;11.542;2023-07-22T04:52:35;95675.88;;;18.76;67.50
73383;BME280;61600;48.126;11.542;2023-07-22T04:55:01;95679.13;;;18.78;67.85
73383;BME280;61600;48.126;11.542;2023-07-22T04:57:41;95681.94;;;18.69;68.26
73383;BME280;61600;48.126;11.542;2023-07-22T05:00:13;95685.97;;;18.72;68.09
73383;BME280;61600;48.126;11.542;2023-07-22T05:02:45;95684.63;;;18.78;67.85
73383;BME280;61600;48.126;11.542;2023-07-22T05:05:12;95675.22;;;18.79;67.21
73383;BME280;61600;48.126;11.542;2023-07-22T05:07:39;95681.13;;;18.89;66.70
73383;BME280;61600;48.126;11.542;2023-07-22T05:10:07;95681.88;;;18.99;67.10
73383;BME280;61600;48.126;11.542;2023-07-22T05:12:41;95685.03;;;19.09;66.11
73383;BME280;61600;48.126;11.542;2023-07-22T05:15:09;95684.41;;;19.04;66.05
73383;BME280;61600;48.126;11.542;2023-07-22T05:17:35;95691.63;;;18.96;65.27
73383;BME280;61600;48.126;11.542;2023-07-22T05:20:01;95697.34;;;18.91;65.62
73383;BME280;61600;48.126;11.542;2023-07-22T05:22:26;95698.81;;;19.09;65.32
73383;BME280;61600;48.126;11.542;2023-07-22T05:24:52;95701.41;;;19.26;64.71
73383;BME280;61600;48.126;11.542;2023-07-22T05:27:18;95694.97;;;19.02;64.91
73383;BME280;61600;48.126;11.542;2023-07-22T05:29:44;95695.19;;;19.17;65.26
73383;BME280;61600;48.126;11.542;2023-07-22T05:32:10;95699.31;;;19.23;65.52
73383;BME280;61600;48.126;11.542;2023-07-22T05:34:36;95690.88;;;19.40;65.32
73383;BME280;61600;48.126;11.542;2023-07-22T05:37:03;95694.78;;;19.39;64.14
73383;BME280;61600;48.126;11.542;2023-07-22T05:39:29;95698.22;;;19.36;63.92
73383;BME280;61600;48.126;11.542;2023-07-22T05:41:55;95695.59;;;19.40;63.95
73383;BME280;61600;48.126;11.542;2023-07-22T05:44:21;95687.81;;;19.42;63.77
73383;BME280;61600;48.126;11.542;2023-07-22T05:46:47;95691.56;;;19.37;64.05
73383;BME280;61600;48.126;11.542;2023-07-22T05:49:12;95688.84;;;19.50;63.39
73383;BME280;61600;48.126;11.542;2023-07-22T05:51:38;95701.66;;;19.33;63.47
73383;BME280;61600;48.126;11.542;2023-07-22T05:54:04;95696.00;;;19.51;63.09
73383;BME280;61600;48.126;11.542;2023-07-22T05:56:30;95696.47;;;19.53;63.18
73383;BME280;61600;48.126;11.542;2023-07-22T05:58:56;95703.66;;;19.78;62.76
73383;BME280;61600;48.126;11.542;2023-07-22T06:01:23;95707.19;;;19.33;63.63
73383;BME280;61600;48.126;11.542;2023-07-22T06:03:50;95706.47;;;19.57;62.49
73383;BME280;61600;48.126;11.542;2023-07-22T06:06:16;95703.28;;;19.67;61.71
73383;BME280;61600;48.126;11.542;2023-07-22T06:08:41;95704.94;;;19.92;61.03
73383;BME280;61600;48.126;11.542;2023-07-22T06:11:07;95706.88;;;19.92;60.71
73383;BME280;61600;48.126;11.542;2023-07-22T06:13:33;95711.81;;;19.74;60.31
73383;BME280;61600;48.126;11.542;2023-07-22T06:15:59;95713.16;;;19.56;60.22
73383;BME280;61600;48.126;11.542;2023-07-22T06:18:24;95712.97;;;19.73;59.76
73383;BME280;61600;48.126;11.542;2023-07-22T06:20:50;95721.13;;;19.70;60.16
73383;BME280;61600;48.126;11.542;2023-07-22T06:23:16;95721.91;;;19.70;60.59
73383;BME280;61600;48.126;11.542;2023-07-22T06:25:42;95727.47;;;19.50;59.65
73383;BME280;61600;48.126;11.542;2023-07-22T06:28:08;95726.34;;;19.83;58.99
73383;BME280;61600;48.126;11.542;2023-07-22T06:30:33;95726.81;;;19.98;58.40
73383;BME280;61600;48.126;11.542;2023-07-22T06:32:59;95733.56;;;19.43;59.57
73383;BME280;61600;48.126;11.542;2023-07-22T06:35:25;95726.78;;;19.20;60.63
73383;BME280;61600;48.126;11.542;2023-07-22T06:37:50;95732.13;;;19.58;58.89
73383;BME280;61600;48.126;11.542;2023-07-22T06:40:17;95731.22;;;19.66;58.62
73383;BME280;61600;48.126;11.542;2023-07-22T06:42:42;95731.59;;;19.76;57.08
73383;BME280;61600;48.126;11.542;2023-07-22T06:45:08;95729.19;;;19.75;58.15
73383;BME280;61600;48.126;11.542;2023-07-22T06:47:34;95727.50;;;19.94;57.24
73383;BME280;61600;48.126;11.542;2023-07-22T06:50:02;95730.44;;;20.34;57.02
73383;BME280;61600;48.126;11.542;2023-07-22T06:52:30;95727.22;;;20.32;56.97
73383;BME280;61600;48.126;11.542;2023-07-22T06:54:56;95731.72;;;20.61;56.14
73383;BME280;61600;48.126;11.542;2023-07-22T06:57:22;95739.44;;;19.99;56.58
73383;BME280;61600;48.126;11.542;2023-07-22T06:59:48;95738.09;;;20.17;55.95
73383;BME280;61600;48.126;11.542;2023-07-22T07:02:16;95736.13;;;19.93;56.24
73383;BME280;61600;48.126;11.542;2023-07-22T07:04:42;95733.41;;;20.05;56.30
73383;BME280;61600;48.126;11.542;2023-07-22T07:07:09;95734.50;;;19.92;56.29
73383;BME280;61600;48.126;11.542;2023-07-22T07:09:35;95731.09;;;20.19;55.28
73383;BME280;61600;48.126;11.542;2023-07-22T07:12:01;95735.25;;;20.37;55.29
73383;BME280;61600;48.126;11.542;2023-07-22T07:14:26;95740.28;;;20.23;54.64
73383;BME280;61600;48.126;11.542;2023-07-22T07:16:52;95742.19;;;20.31;53.88
73383;BME280;61600;48.126;11.542;2023-07-22T07:19:18;95743.09;;;20.35;54.10
73383;BME280;61600;48.126;11.542;2023-07-22T07:21:44;95738.50;;;20.52;53.56
73383;BME280;61600;48.126;11.542;2023-07-22T07:24:10;95739.88;;;20.70;53.69
73383;BME280;61600;48.126;11.542;2023-07-22T07:26:36;95738.00;;;20.74;52.87
73383;BME280;61600;48.126;11.542;2023-07-22T07:29:01;95732.94;;;20.76;52.26
73383;BME280;61600;48.126;11.542;2023-07-22T07:31:27;95739.28;;;20.76;52.24
73383;BME280;61600;48.126;11.542;2023-07-22T07:33:53;95742.84;;;20.77;52.51
73383;BME280;61600;48.126;11.542;2023-07-22T07:36:19;95746.66;;;20.72;52.41
73383;BME280;61600;48.126;11.542;2023-07-22T07:38:44;95749.31;;;20.69;52.23
73383;BME280;61600;48.126;11.542;2023-07-22T07:41:10;95758.53;;;20.61;52.65
73383;BME280;61600;48.126;11.542;2023-07-22T07:43:38;95747.13;;;20.50;51.48
73383;BME280;61600;48.126;11.542;2023-07-22T07:46:22;95742.41;;;20.63;51.42
73383;BME280;61600;48.126;11.542;2023-07-22T07:48:56;95745.84;;;20.60;50.22
73383;BME280;61600;48.126;11.542;2023-07-22T07:51:24;95746.44;;;20.65;50.97
73383;BME280;61600;48.126;11.542;2023-07-22T07:53:52;95752.97;;;20.73;50.54
73383;BME280;61600;48.126;11.542;2023-07-22T07:56:19;95757.38;;;20.86;50.97
73383;BME280;61600;48.126;11.542;2023-07-22T07:58:46;95752.50;;;20.83;49.16
73383;BME280;61600;48.126;11.542;2023-07-22T08:01:12;95755.59;;;20.93;49.37
73383;BME280;61600;48.126;11.542;2023-07-22T08:03:39;95749.97;;;20.90;50.19
73383;BME280;61600;48.126;11.542;2023-07-22T08:06:05;95742.38;;;20.87;49.78
73383;BME280;61600;48.126;11.542;2023-07-22T08:08:32;95754.44;;;21.07;49.81
73383;BME280;61600;48.126;11.542;2023-07-22T08:11:06;95757.47;;;20.89;49.20
73383;BME280;61600;48.126;11.542;2023-07-22T08:13:33;95746.22;;;21.22;49.42
73383;BME280;61600;48.126;11.542;2023-07-22T08:16:04;95745.94;;;21.39;49.38
73383;BME280;61600;48.126;11.542;2023-07-22T08:18:31;95758.47;;;20.97;46.86
73383;BME280;61600;48.126;11.542;2023-07-22T08:20:57;95757.09;;;21.03;46.80
73383;BME280;61600;48.126;11.542;2023-07-22T08:23:23;95747.72;;;21.32;46.28
73383;BME280;61600;48.126;11.542;2023-07-22T08:25:49;95751.25;;;21.45;45.83
73383;BME280;61600;48.126;11.542;2023-07-22T08:28:15;95751.00;;;21.50;46.68
73383;BME280;61600;48.126;11.542;2023-07-22T08:30:41;95755.94;;;21.28;46.04
73383;BME280;61600;48.126;11.542;2023-07-22T08:33:09;95750.59;;;21.35;45.84
73383;BME280;61600;48.126;11.542;2023-07-22T08:35:35;95748.81;;;21.43;45.99
73383;BME280;61600;48.126;11.542;2023-07-22T08:38:05;95750.22;;;21.65;45.04
73383;BME280;61600;48.126;11.542;2023-07-22T08:40:35;95749.38;;;21.76;45.42
73383;BME280;61600;48.126;11.542;2023-07-22T08:43:03;95746.41;;;21.85;45.97
73383;BME280;61600;48.126;11.542;2023-07-22T08:45:30;95750.38;;;21.84;44.71
73383;BME280;61600;48.126;11.542;2023-07-22T08:48:05;95742.72;;;21.93;44.77
73383;BME280;61600;48.126;11.542;2023-07-22T08:53:16;95746.31;;;21.81;44.02
73383;BME280;61600;48.126;11.542;2023-07-22T08:55:45;95735.84;;;22.03;43.48
73383;BME280;61600;48.126;11.542;2023-07-22T08:58:11;95738.53;;;21.71;43.40
73383;BME280;61600;48.126;11.542;2023-07-22T09:00:38;95742.06;;;21.84;42.99
73383;BME280;61600;48.126;11.542;2023-07-22T09:03:05;95744.97;;;21.60;43.19
73383;BME280;61600;48.126;11.542;2023-07-22T09:05:32;95742.78;;;21.81;43.52
73383;BME280;61600;48.126;11.542;2023-07-22T09:08:01;95734.28;;;21.89;42.93
73383;BME280;61600;48.126;11.542;2023-07-22T09:10:28;95738.81;;;22.25;42.66
73383;BME280;61600;48.126;11.542;2023-07-22T09:12:54;95734.63;;;22.47;43.12
73383;BME280;61600;48.126;11.542;2023-07-22T09:15:20;95734.25;;;22.49;43.34
73383;BME280;61600;48.126;11.542;2023-07-22T09:17:47;95732.47;;;22.72;43.23
73383;BME280;61600;48.126;11.542;2023-07-22T09:20:13;95722.81;;;22.66;42.75
73383;BME280;61600;48.126;11.542;2023-07-22T09:22:50;95732.13;;;22.26;42.20
73383;BME280;61600;48.126;11.542;2023-07-22T09:25:19;95726.38;;;22.51;42.43
73383;BME280;61600;48.126;11.542;2023-07-22T09:27:57;95731.22;;;22.54;42.69
73383;BME280;61600;48.126;11.542;2023-07-22T09:30:35;95722.91;;;22.54;42.50
73383;BME280;61600;48.126;11.542;2023-07-22T09:33:02;95721.16;;;22.80;41.78
73383;BME280;61600;48.126;11.542;2023-07-22T09:35:49;95723.69;;;22.70;40.88
73383;BME280;61600;48.126;11.542;2023-07-22T09:38:25;95720.97;;;22.89;40.81
73383;BME280;61600;48.126;11.542;2023-07-22T09:40:52;95718.50;;;22.53;40.06
73383;BME280;61600;48.126;11.542;2023-07-22T09:43:18;95728.59;;;22.76;40.16
73383;BME280;61600;48.126;11.542;2023-07-22T09:45:47;95715.72;;;22.53;39.75
73383;BME280;61600;48.126;11.542;2023-07-22T09:48:13;95710.19;;;22.68;39.57
73383;BME280;61600;48.126;11.542;2023-07-22T09:50:39;95711.59;;;22.78;39.52
73383;BME280;61600;48.126;11.542;2023-07-22T09:53:04;95717.06;;;22.74;40.04
73383;BME280;61600;48.126;11.542;2023-07-22T09:55:31;95719.28;;;22.84;40.01
73383;BME280;61600;48.126;11.542;2023-07-22T09:58:02;95717.06;;;23.09;39.49
73383;BME280;61600;48.126;11.542;2023-07-22T10:00:30;95717.25;;;23.35;39.23
73383;BME280;61600;48.126;11.542;2023-07-22T10:02:57;95705.41;;;23.38;39.06
73383;BME280;61600;48.126;11.542;2023-07-22T10:05:25;95707.28;;;23.34;38.75
73383;BME280;61600;48.126;11.542;2023-07-22T10:07:53;95711.97;;;23.11;38.66
73383;BME280;61600;48.126;11.542;2023-07-22T10:10:21;95707.13;;;22.89;38.24
73383;BME280;61600;48.126;11.542;2023-07-22T10:12:48;95701.38;;;23.17;39.03
73383;BME280;61600;48.126;11.542;2023-07-22T10:15:15;95709.56;;;23.29;37.92
73383;BME280;61600;48.126;11.542;2023-07-22T10:17:42;95698.47;;;23.48;37.54
73383;BME280;61600;48.126;11.542;2023-07-22T10:20:09;95700.44;;;23.28;37.10
73383;BME280;61600;48.126;11.542;2023-07-22T10:22:44;95702.41;;;23.66;36.03
73383;BME280;61600;48.126;11.542;2023-07-22T10:25:20;95709.50;;;23.64;35.18
73383;BME280;61600;48.126;11.542;2023-07-22T10:27:51;95698.53;;;23.71;35.12
73383;BME280;61600;48.126;11.542;2023-07-22T10:30:17;95693.59;;;23.83;35.13
73383;BME280;61600;48.126;11.542;2023-07-22T10:32:48;95694.41;;;24.07;34.96
73383;BME280;61600;48.126;11.542;2023-07-22T10:38:15;95694.63;;;24.17;35.88
73383;BME280;61600;48.126;11.542;2023-07-22T10:40:53;95699.56;;;24.50;35.09
73383;BME280;61600;48.126;11.542;2023-07-22T10:43:33;95701.69;;;24.34;34.32
73383;BME280;61600;48.126;11.542;2023-07-22T10:46:14;95698.88;;;24.57;34.32
73383;BME280;61600;48.126;11.542;2023-07-22T10:48:41;95697.75;;;24.61;34.50
73383;BME280;61600;48.126;11.542;2023-07-22T10:51:13;95690.78;;;24.74;33.86
73383;BME280;61600;48.126;11.542;2023-07-22T10:53:49;95696.59;;;24.62;33.83
73383;BME280;61600;48.126;11.542;2023-07-22T10:56:19;95680.44;;;24.98;33.01
73383;BME280;61600;48.126;11.542;2023-07-22T11:06:59;95658.91;;;25.54;32.55
73383;BME280;61600;48.126;11.542;2023-07-22T11:11:59;95661.47;;;25.37;32.84
73383;BME280;61600;48.126;11.542;2023-07-22T11:14:27;95657.38;;;25.60;33.53
73383;BME280;61600;48.126;11.542;2023-07-22T11:16:53;95639.50;;;26.05;32.48
73383;BME280;61600;48.126;11.542;2023-07-22T11:19:22;95651.75;;;25.94;32.24
73383;BME280;61600;48.126;11.542;2023-07-22T11:21:50;95641.41;;;25.94;31.08
73383;BME280;61600;48.126;11.542;2023-07-22T11:24:17;95635.72;;;25.47;31.58
73383;BME280;61600;48.126;11.542;2023-07-22T11:26:44;95643.84;;;25.62;31.35
73383;BME280;61600;48.126;11.542;2023-07-22T11:29:10;95650.94;;;25.53;32.39
73383;BME280;61600;48.126;11.542;2023-07-22T11:31:38;95638.53;;;25.87;32.37
73383;BME280;61600;48.126;11.542;2023-07-22T11:34:13;95626.59;;;26.27;32.58
73383;BME280;61600;48.126;11.542;2023-07-22T11:36:39;95617.75;;;26.72;32.04
73383;BME280;61600;48.126;11.542;2023-07-22T11:39:07;95618.66;;;26.87;30.67
73383;BME280;61600;48.126;11.542;2023-07-22T11:41:34;95626.38;;;27.18;30.33
73383;BME280;61600;48.126;11.542;2023-07-22T11:44:02;95622.84;;;26.56;31.72
73383;BME280;61600;48.126;11.542;2023-07-22T11:46:31;95623.09;;;27.02;31.16
73383;BME280;61600;48.126;11.542;2023-07-22T11:48:56;95609.22;;;27.20;30.63
73383;BME280;61600;48.126;11.542;2023-07-22T11:51:24;95623.94;;;27.10;30.76
73383;BME280;61600;48.126;11.542;2023-07-22T11:53:54;95612.34;;;27.01;30.35
73383;BME280;61600;48.126;11.542;2023-07-22T11:56:27;95612.13;;;26.69;30.15
73383;BME280;61600;48.126;11.542;2023-07-22T11:58:56;95602.53;;;26.12;30.38
73383;BME280;61600;48.126;11.542;2023-07-22T12:01:23;95599.19;;;27.01;30.30
73383;BME280;61600;48.126;11.542;2023-07-22T12:03:55;95590.84;;;27.08;29.81
73383;BME280;61600;48.126;11.542;2023-07-22T12:06:25;95587.66;;;27.13;29.72
73383;BME280;61600;48.126;11.542;2023-07-22T12:08:51;95589.81;;;27.62;29.42
73383;BME280;61600;48.126;11.542;2023-07-22T12:11:21;95587.47;;;27.78;28.76
73383;BME280;61600;48.126;11.542;2023-07-22T12:14:07;95589.34;;;27.43;29.65
73383;BME280;61600;48.126;11.542;2023-07-22T12:16:35;95592.09;;;27.25;29.85
73383;BME280;61600;48.126;11.542;2023-07-22T12:19:02;95584.59;;;27.47;29.85
73383;BME280;61600;48.126;11.542;2023-07-22T12:21:28;95586.84;;;27.16;29.86
73383;BME280;61600;48.126;11.542;2023-07-22T12:23:54;95570.25;;;27.66;29.77
73383;BME280;61600;48.126;11.542;2023-07-22T12:26:20;95576.94;;;27.26;29.61
73383;BME280;61600;48.126;11.542;2023-07-22T12:28:46;95577.41;;;27.49;29.95
73383;BME280;61600;48.126;11.542;2023-07-22T12:31:12;95573.88;;;27.84;29.09
73383;BME280;61600;48.126;11.542;2023-07-22T12:33:38;95571.94;;;28.13;27.83
73383;BME280;61600;48.126;11.542;2023-07-22T12:36:03;95569.50;;;27.97;28.39
73383;BME280;61600;48.126;11.542;2023-07-22T12:38:31;95569.50;;;27.69;28.67
73383;BME280;61600;48.126;11.542;2023-07-22T12:40:57;95579.66;;;27.08;29.56
73383;BME280;61600;48.126;11.542;2023-07-22T12:43:22;95565.75;;;27.26;29.57
73383;BME280;61600;48.126;11.542;2023-07-22T12:45:48;95571.88;;;27.81;29.16
73383;BME280;61600;48.126;11.542;2023-07-22T12:48:14;95563.94;;;28.22;28.17
73383;BME280;61600;48.126;11.542;2023-07-22T12:50:40;95572.28;;;28.01;28.90
73383;BME280;61600;48.126;11.542;2023-07-22T12:53:06;95566.34;;;28.20;28.12
73383;BME280;61600;48.126;11.542;2023-07-22T12:55:31;95572.72;;;28.27;27.67
73383;BME280;61600;48.126;11.542;2023-07-22T12:57:57;95560.75;;;28.16;28.45
73383;BME280;61600;48.126;11.542;2023-07-22T13:00:23;95548.75;;;28.12;28.04
73383;BME280;61600;48.126;11.542;2023-07-22T13:02:49;95570.25;;;27.62;28.42
73383;BME280;61600;48.126;11.542;2023-07-22T13:05:14;95559.97;;;26.80;30.04
73383;BME280;61600;48.126;11.542;2023-07-22T13:07:40;95556.59;;;27.25;29.75